createdAt,value
2017-06-09T00:00:43.407Z,0
2017-06-09T00:01:38.441Z,0
2017-06-09T00:02:38.461Z,0
2017-06-09T00:03:32.510Z,0
2017-06-09T00:04:32.526Z,0
2017-06-09T00:05:27.844Z,0
2017-06-09T00:06:22.639Z,0
2017-06-09T00:07:22.643Z,0
2017-06-09T00:08:17.720Z,0
2017-06-09T00:09:12.753Z,0
2017-06-09T00:10:12.798Z,0
2017-06-09T00:11:07.841Z,0
2017-06-09T00:12:02.816Z,0
2017-06-09T00:13:03.845Z,0
2017-06-09T00:14:03.895Z,0
2017-06-09T00:15:03.914Z,0
2017-06-09T00:15:59.393Z,0
2017-06-09T00:16:53.015Z,0
2017-06-09T00:17:47.045Z,0
2017-06-09T00:18:42.059Z,0
2017-06-09T00:19:42.111Z,0
2017-06-09T00:20:37.351Z,0
2017-06-09T00:21:32.230Z,0
2017-06-09T00:22:32.461Z,0
2017-06-09T00:23:27.248Z,0
2017-06-09T00:24:22.301Z,0
2017-06-09T00:25:23.340Z,0
2017-06-09T00:26:23.381Z,0
2017-06-09T00:27:23.440Z,0
2017-06-09T00:28:18.442Z,0
2017-06-09T00:29:12.525Z,0
2017-06-09T00:30:12.539Z,0
2017-06-09T00:31:07.835Z,0
2017-06-09T00:32:07.580Z,0
2017-06-09T00:33:01.618Z,0
2017-06-09T00:34:01.763Z,0
2017-06-09T00:34:56.723Z,0
2017-06-09T00:35:51.820Z,0
2017-06-09T00:36:51.813Z,0
2017-06-09T00:37:40.907Z,0
2017-06-09T00:38:28.837Z,0
2017-06-09T00:39:17.977Z,0
2017-06-09T00:40:05.963Z,0
2017-06-09T00:40:54.033Z,0
2017-06-09T00:41:43.040Z,0
2017-06-09T00:42:31.103Z,0
2017-06-09T00:43:25.170Z,0
2017-06-09T00:44:13.132Z,0
2017-06-09T00:45:02.229Z,0
2017-06-09T00:45:57.240Z,0
2017-06-09T00:46:57.340Z,0
2017-06-09T00:47:52.351Z,0
2017-06-09T00:48:58.317Z,0
2017-06-09T00:49:53.439Z,0
2017-06-09T00:50:47.448Z,0
2017-06-09T00:51:47.488Z,0
2017-06-09T00:52:47.539Z,0
2017-06-09T00:53:42.600Z,0
2017-06-09T00:54:36.608Z,0
2017-06-09T00:55:36.742Z,0
2017-06-09T00:56:31.817Z,0
2017-06-09T00:57:31.862Z,0
2017-06-09T00:58:25.702Z,0
2017-06-09T00:59:25.734Z,0
2017-06-09T01:00:20.825Z,0
2017-06-09T01:01:15.789Z,0
2017-06-09T01:02:16.136Z,0
2017-06-09T01:03:10.944Z,0
2017-06-09T01:04:05.991Z,0
2017-06-09T01:05:07.018Z,0
2017-06-09T01:06:07.177Z,0
2017-06-09T01:07:07.050Z,0
2017-06-09T01:08:02.387Z,0
2017-06-09T01:08:56.134Z,0
2017-06-09T01:09:56.129Z,0
2017-06-09T01:10:51.472Z,0
2017-06-09T01:11:57.244Z,0
2017-06-09T01:12:52.252Z,0
2017-06-09T01:13:46.661Z,0
2017-06-09T01:14:46.350Z,0
2017-06-09T01:15:46.735Z,0
2017-06-09T01:16:41.468Z,0
2017-06-09T01:17:35.444Z,0
2017-06-09T01:18:36.580Z,0
2017-06-09T01:19:25.823Z,0
2017-06-09T01:20:13.527Z,0
2017-06-09T01:21:07.666Z,0
2017-06-09T01:22:01.663Z,0
2017-06-09T01:22:50.740Z,0
2017-06-09T01:23:38.764Z,0
2017-06-09T01:24:27.043Z,0
2017-06-09T01:25:15.827Z,0
2017-06-09T01:26:15.972Z,0
2017-06-09T01:27:09.978Z,0
2017-06-09T01:28:09.937Z,0
2017-06-09T01:29:03.965Z,0
2017-06-09T01:30:04.464Z,0
2017-06-09T01:31:04.054Z,0
2017-06-09T01:31:59.045Z,0
2017-06-09T01:32:54.112Z,0
2017-06-09T01:33:55.145Z,0
2017-06-09T01:34:55.148Z,0
2017-06-09T01:35:55.727Z,0
2017-06-09T01:36:50.275Z,0
2017-06-09T01:37:44.353Z,0
2017-06-09T01:38:44.383Z,0
2017-06-09T01:39:39.365Z,0
2017-06-09T01:40:33.423Z,0
2017-06-09T01:41:21.876Z,0
2017-06-09T01:42:10.504Z,0
2017-06-09T01:42:58.543Z,0
2017-06-09T01:43:53.575Z,0
2017-06-09T01:44:53.611Z,0
2017-06-09T01:45:47.662Z,0
2017-06-09T01:46:48.261Z,0
2017-06-09T01:47:42.748Z,0
2017-06-09T01:48:37.759Z,0
2017-06-09T01:49:38.805Z,0
2017-06-09T01:50:40.347Z,0
2017-06-09T01:51:39.884Z,0
2017-06-09T01:52:40.241Z,0
2017-06-09T01:53:39.924Z,0
2017-06-09T01:54:41.002Z,0
2017-06-09T01:55:42.020Z,0
2017-06-09T01:56:36.008Z,0
2017-06-09T01:57:36.062Z,0
2017-06-09T01:58:31.427Z,0
2017-06-09T01:59:26.151Z,0
2017-06-09T02:00:26.165Z,0
2017-06-09T02:01:21.501Z,0
2017-06-09T02:02:16.195Z,0
2017-06-09T02:03:16.292Z,0
2017-06-09T02:04:11.808Z,0
2017-06-09T02:05:06.326Z,0
2017-06-09T02:06:07.801Z,0
2017-06-09T02:07:07.406Z,0
2017-06-09T02:08:07.450Z,0
2017-06-09T02:09:02.535Z,0
2017-06-09T02:09:51.561Z,0
2017-06-09T02:10:47.021Z,0
2017-06-09T02:11:47.635Z,0
2017-06-09T02:12:47.639Z,0
2017-06-09T02:13:42.638Z,0
2017-06-09T02:14:42.729Z,0
2017-06-09T02:15:36.784Z,0
2017-06-09T02:16:36.812Z,0
2017-06-09T02:17:30.806Z,0
2017-06-09T02:18:30.863Z,0
2017-06-09T02:19:24.954Z,0
2017-06-09T02:20:24.930Z,0
2017-06-09T02:21:25.102Z,0
2017-06-09T02:22:24.972Z,4
2017-06-09T02:23:25.040Z,4
2017-06-09T02:24:20.093Z,4
2017-06-09T02:25:20.164Z,0
2017-06-09T02:26:20.092Z,4
2017-06-09T02:27:26.256Z,4
2017-06-09T02:28:21.237Z,4
2017-06-09T02:29:21.240Z,4
2017-06-09T02:30:16.397Z,4
2017-06-09T02:31:16.377Z,8
2017-06-09T02:32:16.382Z,4
2017-06-09T02:33:16.790Z,8
2017-06-09T02:34:10.429Z,8
2017-06-09T02:35:10.480Z,8
2017-06-09T02:36:05.682Z,12
2017-06-09T02:37:00.520Z,12
2017-06-09T02:38:00.592Z,12
2017-06-09T02:38:55.805Z,16
2017-06-09T02:39:50.699Z,16
2017-06-09T02:40:51.672Z,16
2017-06-09T02:41:52.718Z,20
2017-06-09T02:42:52.752Z,24
2017-06-09T02:43:53.737Z,28
2017-06-09T02:44:47.863Z,28
2017-06-09T02:45:47.847Z,32
2017-06-09T02:46:42.930Z,36
2017-06-09T02:47:37.941Z,40
2017-06-09T02:48:37.930Z,40
2017-06-09T02:49:32.977Z,48
2017-06-09T02:50:28.533Z,48
2017-06-09T02:51:28.070Z,56
2017-06-09T02:52:23.115Z,60
2017-06-09T02:53:18.635Z,64
2017-06-09T02:54:19.153Z,72
2017-06-09T02:55:19.211Z,80
2017-06-09T02:56:19.332Z,92
2017-06-09T02:57:19.339Z,104
2017-06-09T02:58:19.324Z,112
2017-06-09T02:59:19.338Z,128
2017-06-09T03:00:19.383Z,136
2017-06-09T03:01:19.433Z,148
2017-06-09T03:02:19.437Z,160
2017-06-09T03:03:19.466Z,176
2017-06-09T03:04:19.520Z,192
2017-06-09T03:05:19.547Z,204
2017-06-09T03:06:19.582Z,220
2017-06-09T03:07:20.669Z,236
2017-06-09T03:08:15.634Z,252
2017-06-09T03:09:09.713Z,264
2017-06-09T03:10:10.729Z,284
2017-06-09T03:11:05.786Z,304
2017-06-09T03:12:05.831Z,320
2017-06-09T03:13:05.992Z,340
2017-06-09T03:14:05.893Z,356
2017-06-09T03:15:05.904Z,376
2017-06-09T03:16:05.933Z,396
2017-06-09T03:17:00.998Z,416
2017-06-09T03:18:01.030Z,440
2017-06-09T03:18:56.097Z,464
2017-06-09T03:19:50.055Z,496
2017-06-09T03:20:39.189Z,528
2017-06-09T03:21:40.156Z,568
2017-06-09T03:22:34.228Z,600
2017-06-09T03:23:34.283Z,636
2017-06-09T03:24:29.344Z,668
2017-06-09T03:25:24.372Z,704
2017-06-09T03:26:18.360Z,728
2017-06-09T03:27:18.402Z,760
2017-06-09T03:28:13.476Z,780
2017-06-09T03:29:07.529Z,804
2017-06-09T03:29:55.609Z,828
2017-06-09T03:30:44.575Z,852
2017-06-09T03:31:44.630Z,884
2017-06-09T03:32:44.672Z,928
2017-06-09T03:33:33.687Z,968
2017-06-09T03:34:27.751Z,1016
2017-06-09T03:35:21.774Z,1076
2017-06-09T03:36:16.837Z,1148
2017-06-09T03:37:18.062Z,1244
2017-06-09T03:38:17.861Z,1356
2017-06-09T03:39:12.937Z,1476
2017-06-09T03:40:08.529Z,1600
2017-06-09T03:41:08.009Z,1744
2017-06-09T03:42:03.080Z,1884
2017-06-09T03:42:58.037Z,2028
2017-06-09T03:43:52.128Z,2156
2017-06-09T03:44:52.168Z,2280
2017-06-09T03:45:47.188Z,2384
2017-06-09T03:46:42.306Z,2480
2017-06-09T03:47:42.239Z,2564
2017-06-09T03:48:37.347Z,2648
2017-06-09T03:49:32.357Z,2732
2017-06-09T03:50:26.351Z,2804
2017-06-09T03:51:26.399Z,2884
2017-06-09T03:52:21.453Z,2968
2017-06-09T03:53:21.465Z,3064
2017-06-09T03:54:21.559Z,3160
2017-06-09T03:55:21.588Z,3268
2017-06-09T03:56:15.608Z,3364
2017-06-09T03:57:16.218Z,3480
2017-06-09T03:58:10.645Z,3600
2017-06-09T03:59:05.683Z,3740
2017-06-09T03:59:59.764Z,3876
2017-06-09T04:00:59.742Z,4040
2017-06-09T04:01:54.795Z,4172
2017-06-09T04:02:49.885Z,4292
2017-06-09T04:03:49.949Z,4416
2017-06-09T04:04:44.926Z,4524
2017-06-09T04:05:39.957Z,4620
2017-06-09T04:06:34.068Z,4676
2017-06-09T04:07:34.991Z,4700
2017-06-09T04:08:30.070Z,4732
2017-06-09T04:09:24.158Z,4812
2017-06-09T04:10:13.148Z,4908
2017-06-09T04:11:07.220Z,5020
2017-06-09T04:12:02.243Z,5124
2017-06-09T04:12:50.298Z,5212
2017-06-09T04:13:44.330Z,5304
2017-06-09T04:14:39.367Z,5372
2017-06-09T04:15:28.437Z,5424
2017-06-09T04:16:22.456Z,5488
2017-06-09T04:17:22.468Z,5548
2017-06-09T04:18:22.519Z,5668
2017-06-09T04:19:22.523Z,5868
2017-06-09T04:20:16.908Z,6112
2017-06-09T04:21:16.917Z,6444
2017-06-09T04:22:11.706Z,6680
2017-06-09T04:23:06.758Z,7048
2017-06-09T04:24:00.724Z,7560
2017-06-09T04:25:01.801Z,8184
2017-06-09T04:25:56.797Z,8808
2017-06-09T04:26:56.854Z,9448
2017-06-09T04:27:57.087Z,9948
2017-06-09T04:28:56.942Z,10772
2017-06-09T04:29:56.975Z,11752
2017-06-09T04:30:57.017Z,12596
2017-06-09T04:31:57.039Z,15136
2017-06-09T04:32:52.450Z,18176
2017-06-09T04:33:47.119Z,19008
2017-06-09T04:34:42.155Z,18112
2017-06-09T04:35:36.773Z,18176
2017-06-09T04:36:36.327Z,19360
2017-06-09T04:37:36.322Z,21056
2017-06-09T04:38:36.821Z,21056
2017-06-09T04:39:36.614Z,20608
2017-06-09T04:40:36.846Z,16480
2017-06-09T04:41:36.443Z,20800
2017-06-09T04:42:31.579Z,22272
2017-06-09T04:43:20.042Z,23488
2017-06-09T04:44:13.561Z,21728
2017-06-09T04:45:14.173Z,22016
2017-06-09T04:46:07.665Z,20512
2017-06-09T04:47:02.779Z,18624
2017-06-09T04:47:57.765Z,19104
2017-06-09T04:48:51.993Z,17888
2017-06-09T04:49:46.917Z,18560
2017-06-09T04:50:46.930Z,18176
2017-06-09T04:51:35.979Z,12568
2017-06-09T04:52:30.031Z,10700
2017-06-09T04:53:31.378Z,14688
2017-06-09T04:54:31.832Z,13200
2017-06-09T04:55:26.116Z,11448
2017-06-09T04:56:21.210Z,11332
2017-06-09T04:57:21.218Z,12064
2017-06-09T04:58:15.264Z,12168
2017-06-09T04:59:10.318Z,11876
2017-06-09T04:59:59.361Z,12204
2017-06-09T05:00:53.442Z,12640
2017-06-09T05:01:53.470Z,12948
2017-06-09T05:02:41.561Z,15744
2017-06-09T05:03:29.555Z,16608
2017-06-09T05:04:17.558Z,15808
2017-06-09T05:05:12.941Z,15200
2017-06-09T05:06:07.867Z,14848
2017-06-09T05:07:07.730Z,13080
2017-06-09T05:07:56.819Z,11876
2017-06-09T05:08:45.839Z,11552
2017-06-09T05:09:40.869Z,11508
2017-06-09T05:10:41.156Z,11636
2017-06-09T05:11:36.024Z,11844
2017-06-09T05:12:41.995Z,12280
2017-06-09T05:13:36.059Z,12780
2017-06-09T05:14:37.188Z,13476
2017-06-09T05:15:37.706Z,14280
2017-06-09T05:16:37.249Z,15204
2017-06-09T05:17:32.271Z,16608
2017-06-09T05:18:32.307Z,18752
2017-06-09T05:19:32.754Z,20256
2017-06-09T05:20:32.993Z,21824
2017-06-09T05:21:32.547Z,21568
2017-06-09T05:22:32.450Z,21248
2017-06-09T05:23:32.487Z,24096
2017-06-09T05:24:32.767Z,24320
2017-06-09T05:25:38.745Z,22944
2017-06-09T05:26:33.651Z,24928
2017-06-09T05:27:27.684Z,25312
2017-06-09T05:28:28.711Z,23488
2017-06-09T05:29:22.747Z,24512
2017-06-09T05:30:17.804Z,22400
2017-06-09T05:31:18.412Z,22624
2017-06-09T05:32:12.951Z,22432
2017-06-09T05:33:07.980Z,19968
2017-06-09T05:34:02.369Z,19392
2017-06-09T05:35:02.039Z,18752
2017-06-09T05:35:56.118Z,17568
2017-06-09T05:36:56.156Z,15424
2017-06-09T05:37:50.139Z,14544
2017-06-09T05:38:50.335Z,13940
2017-06-09T05:39:44.615Z,13392
2017-06-09T05:40:50.360Z,13136
2017-06-09T05:41:44.381Z,13216
2017-06-09T05:42:50.424Z,13616
2017-06-09T05:43:39.447Z,13992
2017-06-09T05:44:28.524Z,14280
2017-06-09T05:45:17.778Z,14620
2017-06-09T05:46:06.704Z,14844
2017-06-09T05:47:01.707Z,15108
2017-06-09T05:48:01.852Z,15216
2017-06-09T05:48:56.758Z,16160
2017-06-09T05:49:56.831Z,17856
2017-06-09T05:50:57.898Z,17472
2017-06-09T05:51:51.902Z,16224
2017-06-09T05:52:51.976Z,15680
2017-06-09T05:53:47.002Z,14768
2017-06-09T05:54:42.214Z,13740
2017-06-09T05:55:36.845Z,13348
2017-06-09T05:56:36.168Z,14004
2017-06-09T05:57:30.285Z,12568
2017-06-09T05:58:19.259Z,11892
2017-06-09T05:59:07.293Z,11420
2017-06-09T05:59:56.344Z,10960
2017-06-09T06:00:44.505Z,10944
2017-06-09T06:01:33.593Z,11084
2017-06-09T06:02:33.546Z,10592
2017-06-09T06:03:27.803Z,10260
2017-06-09T06:04:22.575Z,10236
2017-06-09T06:05:12.162Z,10544
2017-06-09T06:06:11.706Z,11144
2017-06-09T06:07:06.740Z,11804
2017-06-09T06:08:01.769Z,12540
2017-06-09T06:09:01.800Z,13520
2017-06-09T06:09:56.905Z,14612
2017-06-09T06:10:51.932Z,16096
2017-06-09T06:11:45.949Z,17600
2017-06-09T06:12:46.007Z,19296
2017-06-09T06:13:41.300Z,20640
2017-06-09T06:14:36.126Z,21600
2017-06-09T06:15:36.706Z,21824
2017-06-09T06:16:30.241Z,21568
2017-06-09T06:17:30.258Z,20800
2017-06-09T06:18:24.244Z,20416
2017-06-09T06:19:12.443Z,19840
2017-06-09T06:20:00.344Z,18752
2017-06-09T06:20:49.732Z,17184
2017-06-09T06:21:37.497Z,16256
2017-06-09T06:22:37.567Z,14960
2017-06-09T06:23:32.579Z,14184
2017-06-09T06:24:32.664Z,13716
2017-06-09T06:25:32.775Z,13632
2017-06-09T06:26:38.715Z,13680
2017-06-09T06:27:33.749Z,13912
2017-06-09T06:28:27.816Z,14228
2017-06-09T06:29:28.854Z,14680
2017-06-09T06:30:24.358Z,15084
2017-06-09T06:31:23.933Z,15936
2017-06-09T06:32:24.326Z,16832
2017-06-09T06:33:24.018Z,17888
2017-06-09T06:34:24.287Z,19328
2017-06-09T06:35:24.535Z,20544
2017-06-09T06:36:24.155Z,21984
2017-06-09T06:37:24.391Z,24128
2017-06-09T06:38:30.226Z,25760
2017-06-09T06:39:25.290Z,26464
2017-06-09T06:40:19.365Z,16960
2017-06-09T06:41:14.425Z,20992
2017-06-09T06:42:20.854Z,18112
2017-06-09T06:43:15.483Z,27584
2017-06-09T06:44:09.548Z,27424
2017-06-09T06:45:09.864Z,24608
2017-06-09T06:46:04.077Z,21568
2017-06-09T06:47:03.729Z,18336
2017-06-09T06:47:58.748Z,15904
2017-06-09T06:48:58.996Z,14080
2017-06-09T06:49:52.817Z,13360
2017-06-09T06:50:46.868Z,12884
2017-06-09T06:51:46.932Z,12640
2017-06-09T06:52:47.006Z,12528
2017-06-09T06:53:41.009Z,12392
2017-06-09T06:54:29.063Z,12128
2017-06-09T06:55:23.077Z,11672
2017-06-09T06:56:18.163Z,11060
2017-06-09T06:57:12.743Z,10520
2017-06-09T06:58:07.576Z,10176
2017-06-09T06:59:07.297Z,10120
2017-06-09T07:00:01.363Z,10116
2017-06-09T07:00:55.340Z,10100
2017-06-09T07:01:50.812Z,10100
2017-06-09T07:02:45.571Z,10216
2017-06-09T07:03:45.904Z,10732
2017-06-09T07:04:40.615Z,11488
2017-06-09T07:05:36.221Z,12448
2017-06-09T07:06:24.673Z,13484
2017-06-09T07:07:19.749Z,14836
2017-06-09T07:08:19.782Z,16480
2017-06-09T07:09:15.458Z,17920
2017-06-09T07:10:09.935Z,19488
2017-06-09T07:11:03.907Z,21248
2017-06-09T07:12:04.028Z,23424
2017-06-09T07:12:59.301Z,26336
2017-06-09T07:13:59.146Z,28736
2017-06-09T07:14:53.440Z,29632
2017-06-09T07:15:47.130Z,28608
2017-06-09T07:16:41.325Z,28544
2017-06-09T07:17:30.519Z,30528
2017-06-09T07:18:19.302Z,32096
2017-06-09T07:19:07.369Z,33600
2017-06-09T07:19:56.733Z,35200
2017-06-09T07:20:50.482Z,36192
2017-06-09T07:21:50.536Z,36896
2017-06-09T07:22:50.825Z,36608
2017-06-09T07:23:50.549Z,37568
2017-06-09T07:24:50.662Z,39072
2017-06-09T07:25:50.782Z,36160
2017-06-09T07:26:51.162Z,33952
2017-06-09T07:27:50.798Z,31840
2017-06-09T07:28:50.883Z,29536
2017-06-09T07:29:39.895Z,28320
2017-06-09T07:30:28.955Z,27136
2017-06-09T07:31:24.007Z,25440
2017-06-09T07:32:19.121Z,23968
2017-06-09T07:33:19.076Z,23392
2017-06-09T07:34:13.184Z,23168
2017-06-09T07:35:13.219Z,23264
2017-06-09T07:36:07.269Z,23552
2017-06-09T07:37:08.560Z,24288
2017-06-09T07:38:02.353Z,25056
2017-06-09T07:38:50.737Z,25760
2017-06-09T07:39:39.762Z,26400
2017-06-09T07:40:33.512Z,26880
2017-06-09T07:41:27.565Z,27392
2017-06-09T07:42:15.702Z,27200
2017-06-09T07:43:09.668Z,26240
2017-06-09T07:44:04.725Z,24416
2017-06-09T07:45:04.795Z,21792
2017-06-09T07:45:53.884Z,19648
2017-06-09T07:46:47.917Z,17792
2017-06-09T07:47:42.970Z,16864
2017-06-09T07:48:38.010Z,16640
2017-06-09T07:49:27.068Z,16800
2017-06-09T07:50:16.420Z,17280
2017-06-09T07:51:10.681Z,17984
2017-06-09T07:51:59.225Z,18592
2017-06-09T07:52:53.505Z,19264
2017-06-09T07:53:42.331Z,19936
2017-06-09T07:54:30.389Z,20576
2017-06-09T07:55:24.426Z,21280
2017-06-09T07:56:12.434Z,21920
2017-06-09T07:57:06.527Z,22720
2017-06-09T07:57:54.935Z,23424
2017-06-09T07:58:49.676Z,24256
2017-06-09T07:59:37.700Z,24928
2017-06-09T08:00:25.754Z,25440
2017-06-09T08:01:19.808Z,25728
2017-06-09T08:02:07.839Z,25792
2017-06-09T08:03:02.157Z,25664
2017-06-09T08:03:56.951Z,25536
2017-06-09T08:04:51.100Z,25344
2017-06-09T08:05:39.656Z,25440
2017-06-09T08:06:27.120Z,25760
2017-06-09T08:07:16.146Z,26176
2017-06-09T08:08:10.514Z,26496
2017-06-09T08:08:58.312Z,26944
2017-06-09T08:09:52.314Z,27456
2017-06-09T08:10:41.993Z,28224
2017-06-09T08:11:35.474Z,29312
2017-06-09T08:12:29.533Z,30304
2017-06-09T08:13:23.798Z,32608
2017-06-09T08:14:17.588Z,31584
2017-06-09T08:15:18.656Z,31680
2017-06-09T08:16:18.745Z,29216
2017-06-09T08:17:13.736Z,28064
2017-06-09T08:18:08.825Z,27328
2017-06-09T08:19:08.859Z,27264
2017-06-09T08:20:03.889Z,27680
2017-06-09T08:20:57.977Z,28512
2017-06-09T08:21:52.001Z,29440
2017-06-09T08:22:53.063Z,30880
2017-06-09T08:23:48.070Z,31904
2017-06-09T08:24:37.204Z,32448
2017-06-09T08:25:31.221Z,32576
2017-06-09T08:26:26.239Z,30272
2017-06-09T08:27:21.342Z,29088
2017-06-09T08:28:10.357Z,27648
2017-06-09T08:29:04.450Z,25760
2017-06-09T08:30:05.508Z,26688
2017-06-09T08:31:06.523Z,26432
2017-06-09T08:32:06.717Z,26752
2017-06-09T08:33:06.688Z,26880
2017-06-09T08:34:01.058Z,26464
2017-06-09T08:34:54.749Z,26048
2017-06-09T08:35:55.114Z,25472
2017-06-09T08:36:48.870Z,25760
2017-06-09T08:37:37.975Z,26080
2017-06-09T08:38:37.956Z,26848
2017-06-09T08:39:26.977Z,27264
2017-06-09T08:40:21.028Z,28448
2017-06-09T08:41:09.932Z,29184
2017-06-09T08:42:03.156Z,30496
2017-06-09T08:42:52.224Z,31776
2017-06-09T08:43:46.252Z,32480
2017-06-09T08:44:41.355Z,33376
2017-06-09T08:45:35.563Z,33440
2017-06-09T08:46:23.744Z,33536
2017-06-09T08:47:17.873Z,34112
2017-06-09T08:48:17.917Z,35168
2017-06-09T08:49:11.863Z,35808
2017-06-09T08:49:59.936Z,36256
2017-06-09T08:50:54.712Z,36352
2017-06-09T08:51:49.222Z,35520
2017-06-09T08:52:42.904Z,33568
2017-06-09T08:53:32.372Z,31584
2017-06-09T08:54:32.334Z,30720
2017-06-09T08:55:21.337Z,30144
2017-06-09T08:56:21.509Z,29504
2017-06-09T08:57:16.416Z,29152
2017-06-09T08:58:11.486Z,28672
2017-06-09T08:59:05.629Z,27360
2017-06-09T09:00:05.723Z,25632
2017-06-09T09:00:54.473Z,25120
2017-06-09T09:01:49.669Z,24704
2017-06-09T09:02:50.032Z,23552
2017-06-09T09:03:44.936Z,22400
2017-06-09T09:04:38.632Z,22528
2017-06-09T09:05:39.170Z,23744
2017-06-09T09:06:33.644Z,24672
2017-06-09T09:07:28.721Z,24352
2017-06-09T09:08:23.814Z,23680
2017-06-09T09:09:11.819Z,23776
2017-06-09T09:10:12.872Z,25472
2017-06-09T09:11:07.279Z,27360
2017-06-09T09:12:01.261Z,29120
2017-06-09T09:12:56.119Z,30336
2017-06-09T09:13:56.080Z,31456
2017-06-09T09:14:51.318Z,31712
2017-06-09T09:15:51.190Z,31520
2017-06-09T09:16:40.232Z,31424
2017-06-09T09:17:28.323Z,31168
2017-06-09T09:18:28.369Z,30272
2017-06-09T09:19:22.929Z,29792
2017-06-09T09:20:22.474Z,28480
2017-06-09T09:21:11.897Z,29728
2017-06-09T09:22:05.596Z,29056
2017-06-09T09:22:54.636Z,27296
2017-06-09T09:23:49.684Z,21600
2017-06-09T09:24:39.472Z,18208
2017-06-09T09:25:33.738Z,18624
2017-06-09T09:26:28.804Z,17120
2017-06-09T09:27:17.848Z,16896
2017-06-09T09:28:13.379Z,16832
2017-06-09T09:29:01.993Z,16224
2017-06-09T09:29:57.313Z,16064
2017-06-09T09:30:52.071Z,16128
2017-06-09T09:31:47.112Z,17216
2017-06-09T09:32:36.150Z,18656
2017-06-09T09:33:30.241Z,19104
2017-06-09T09:34:25.296Z,18656
2017-06-09T09:35:19.423Z,17408
2017-06-09T09:36:13.818Z,16480
2017-06-09T09:37:13.429Z,15752
2017-06-09T09:38:07.450Z,16352
2017-06-09T09:39:07.514Z,16704
2017-06-09T09:39:56.630Z,17344
2017-06-09T09:40:45.599Z,17760
2017-06-09T09:41:39.647Z,18240
2017-06-09T09:42:34.730Z,18144
2017-06-09T09:43:28.764Z,17760
2017-06-09T09:44:23.833Z,17440
2017-06-09T09:45:12.937Z,17312
2017-06-09T09:46:07.967Z,16960
2017-06-09T09:47:02.968Z,17088
2017-06-09T09:47:57.074Z,17600
2017-06-09T09:48:51.220Z,18560
2017-06-09T09:49:46.191Z,18528
2017-06-09T09:50:46.172Z,18304
2017-06-09T09:51:41.402Z,14392
2017-06-09T09:52:30.296Z,11960
2017-06-09T09:53:19.315Z,17024
2017-06-09T09:54:14.385Z,17600
2017-06-09T09:55:09.414Z,18528
2017-06-09T09:55:58.459Z,18528
2017-06-09T09:56:52.822Z,17184
2017-06-09T09:57:41.639Z,15740
2017-06-09T09:58:42.078Z,15296
2017-06-09T09:59:35.661Z,15140
2017-06-09T10:00:35.730Z,14080
2017-06-09T10:01:30.726Z,13328
2017-06-09T10:02:20.200Z,14068
2017-06-09T10:03:09.145Z,15472
2017-06-09T10:03:56.940Z,15872
2017-06-09T10:04:51.951Z,15384
2017-06-09T10:05:47.032Z,14848
2017-06-09T10:06:36.080Z,15556
2017-06-09T10:07:30.665Z,16992
2017-06-09T10:08:24.145Z,17632
2017-06-09T10:09:18.240Z,17056
2017-06-09T10:10:18.243Z,15648
2017-06-09T10:11:07.313Z,14352
2017-06-09T10:11:56.342Z,13504
2017-06-09T10:12:50.709Z,12560
2017-06-09T10:13:44.458Z,11688
2017-06-09T10:14:39.545Z,10984
2017-06-09T10:15:33.503Z,11160
2017-06-09T10:16:27.540Z,12100
2017-06-09T10:17:16.662Z,15068
2017-06-09T10:18:10.740Z,19424
2017-06-09T10:18:59.744Z,22400
2017-06-09T10:19:54.170Z,25472
2017-06-09T10:20:48.792Z,26176
2017-06-09T10:21:43.843Z,25408
2017-06-09T10:22:37.918Z,24224
2017-06-09T10:23:32.113Z,22944
2017-06-09T10:24:31.991Z,20384
2017-06-09T10:25:26.080Z,18272
2017-06-09T10:26:20.130Z,15876
2017-06-09T10:27:20.213Z,14180
2017-06-09T10:28:15.189Z,12420
2017-06-09T10:29:03.298Z,10488
2017-06-09T10:29:58.335Z,8136
2017-06-09T10:30:47.344Z,6808
2017-06-09T10:31:35.443Z,6316
2017-06-09T10:32:29.465Z,5876
2017-06-09T10:33:23.520Z,5756
2017-06-09T10:34:17.527Z,6424
2017-06-09T10:35:17.600Z,7504
2017-06-09T10:36:11.697Z,8344
2017-06-09T10:37:00.663Z,9428
2017-06-09T10:37:48.740Z,9848
2017-06-09T10:38:37.717Z,9588
2017-06-09T10:39:31.860Z,8612
2017-06-09T10:40:19.862Z,7840
2017-06-09T10:41:19.992Z,8404
2017-06-09T10:42:14.928Z,9292
2017-06-09T10:43:08.969Z,11252
2017-06-09T10:43:58.077Z,11760
2017-06-09T10:44:52.413Z,11752
2017-06-09T10:45:47.133Z,10656
2017-06-09T10:46:35.162Z,9000
2017-06-09T10:47:29.257Z,7244
2017-06-09T10:48:24.257Z,6360
2017-06-09T10:49:19.328Z,6228
2017-06-09T10:50:13.656Z,6488
2017-06-09T10:51:02.417Z,6824
2017-06-09T10:51:56.417Z,6580
2017-06-09T10:52:45.469Z,5708
2017-06-09T10:53:39.563Z,4828
2017-06-09T10:54:33.592Z,4360
2017-06-09T10:55:34.017Z,4000
2017-06-09T10:56:27.663Z,4120
2017-06-09T10:57:21.746Z,5696
2017-06-09T10:58:21.741Z,7280
2017-06-09T10:59:21.791Z,8344
2017-06-09T11:00:15.813Z,8680
2017-06-09T11:01:05.761Z,8304
2017-06-09T11:02:04.974Z,8012
2017-06-09T11:02:58.948Z,7444
2017-06-09T11:03:53.029Z,8576
2017-06-09T11:04:48.057Z,8572
2017-06-09T11:05:37.069Z,7508
2017-06-09T11:06:26.444Z,5984
2017-06-09T11:07:15.210Z,5536
2017-06-09T11:08:15.236Z,6156
2017-06-09T11:09:09.269Z,6752
2017-06-09T11:09:57.322Z,6144
2017-06-09T11:10:46.277Z,5760
2017-06-09T11:11:34.452Z,6864
2017-06-09T11:12:23.508Z,7144
2017-06-09T11:13:11.514Z,7632
2017-06-09T11:13:59.553Z,7700
2017-06-09T11:14:59.624Z,11420
2017-06-09T11:15:53.673Z,12096
2017-06-09T11:16:47.672Z,12060
2017-06-09T11:17:47.719Z,12032
2017-06-09T11:18:36.743Z,11288
2017-06-09T11:19:30.818Z,9500
2017-06-09T11:20:19.853Z,7064
2017-06-09T11:21:13.959Z,8544
2017-06-09T11:22:02.367Z,10768
2017-06-09T11:22:50.013Z,10920
2017-06-09T11:23:44.017Z,11936
2017-06-09T11:24:38.058Z,11660
2017-06-09T11:25:26.126Z,11076
2017-06-09T11:26:15.183Z,11148
2017-06-09T11:27:09.700Z,10360
2017-06-09T11:28:04.241Z,9764
2017-06-09T11:28:58.311Z,10296
2017-06-09T11:29:53.326Z,10188
2017-06-09T11:30:47.650Z,10032
2017-06-09T11:31:35.459Z,10652
2017-06-09T11:32:36.860Z,8916
2017-06-09T11:33:30.516Z,9420
2017-06-09T11:34:24.548Z,9636
2017-06-09T11:35:24.745Z,8984
2017-06-09T11:36:19.616Z,7112
2017-06-09T11:37:19.646Z,7036
2017-06-09T11:38:08.699Z,7812
2017-06-09T11:39:02.914Z,5640
2017-06-09T11:39:56.817Z,3676
2017-06-09T11:40:45.784Z,4012
2017-06-09T11:41:33.874Z,4964
2017-06-09T11:42:33.913Z,6976
2017-06-09T11:43:34.029Z,10832
2017-06-09T11:44:35.012Z,12336
2017-06-09T11:45:24.243Z,13864
2017-06-09T11:46:19.081Z,14312
2017-06-09T11:47:13.128Z,14528
2017-06-09T11:48:13.224Z,16960
2017-06-09T11:49:07.221Z,19200
2017-06-09T11:50:07.232Z,19648
2017-06-09T11:50:56.243Z,18496
2017-06-09T11:51:51.359Z,20544
2017-06-09T11:52:46.399Z,24512
2017-06-09T11:53:46.463Z,27136
2017-06-09T11:54:41.505Z,27808
2017-06-09T11:55:30.505Z,28352
2017-06-09T11:56:24.500Z,28672
2017-06-09T11:57:25.543Z,28640
2017-06-09T11:58:14.629Z,29248
2017-06-09T11:59:08.676Z,28896
2017-06-09T12:00:10.098Z,28992
2017-06-09T12:00:57.751Z,29088
2017-06-09T12:01:51.816Z,28320
2017-06-09T12:02:46.810Z,27392
2017-06-09T12:03:41.891Z,26592
2017-06-09T12:04:36.334Z,27104
2017-06-09T12:05:30.256Z,24736
2017-06-09T12:06:30.005Z,22720
2017-06-09T12:07:24.023Z,22304
2017-06-09T12:08:19.122Z,18816
2017-06-09T12:09:08.163Z,15744
2017-06-09T12:10:02.312Z,9752
2017-06-09T12:11:02.507Z,9136
2017-06-09T12:12:02.259Z,13208
2017-06-09T12:12:56.317Z,19200
2017-06-09T12:13:50.386Z,28000
2017-06-09T12:14:45.412Z,34144
2017-06-09T12:15:33.402Z,35936
2017-06-09T12:16:27.560Z,39488
2017-06-09T12:17:16.864Z,39552
2017-06-09T12:18:11.978Z,34976
2017-06-09T12:19:05.635Z,33056
2017-06-09T12:19:54.105Z,39776
2017-06-09T12:20:47.669Z,40288